Metar Flugplatz Niederstetten

ETHN 240120Z 15008KT 1200 BR BKN001 11/11 Q1010 RED



Temperatur Niederstetten
11 Grad Celsius

QNH Niederstetten
1010
==============================================================

TAF Niederstetten:

TAF ETHN 291027Z 2911/3002 24010KT 9999 NSW FEW240 TEMPO 2911/2916 26012G22KT 9999 NSW SCT035 BKN240



Alle Angaben ohne Gewähr